Eveleth, Eveleth Virginia Municipal Airport (KEVM)

NameEveleth Virginia Municipal Airport
CityEveleth
CountryUnited States
ICAOKEVM
IATAEVM
Altitude420 m
CoordinatesGoogle Map
Live Air TrafficLiveATC.net
METARKEVM 172355Z AUTO 15008KT 10SM CLR 21/19 A2988 RMK AO2 60043 T02060190 10214 20180
2019-09-17 23:55:00 Wind: Southeast (150°) 4.12 m/s - Visibility: 16093.4 m - Temperature: 21 °C - Dew point: 19 °C - Humidity: 88.4% - Pressure: 1011.85 hPa
Statistics

The table below shows the detailed information of all flights to/from Eveleth, Eveleth Virginia Municipal Airport (KEVM).